Terminal Aerodrome Forecast
Issued by NWS Pocatello, ID

Home | Current Version | Previous Version | Text Only | Print | Product List | Glossary On
Versions: 1 2 3 4 5 6 7 8 9 10 11 12 13 14
000
FTUS45 KPIH 302300
TAFPIH
TAF
KPIH 302320Z 3100/3124 18006KT P6SM VCTS FEW060CB SCT160
     FM310100 15010KT P6SM VCSH FEW070 FEW110 SCT160
     FM310400 VRB04KT P6SM FEW120 SCT160
     FM312100 04010KT P6SM VCSH FEW060 FEW130=

USA.gov is the U.S. government's official web portal to all federal, state and local government web resources and services.